Portada
METAR-TAF:

METAR-TAF

Aeroports :

Turku, Finlàndia

latitud: 60-31N, longitud: 022-16E, altitud: 49 m

Observació

L'informe es va fer fa 15 minuts, a les 00:50 UTC
Vent 3 kt del Sud-Est
Temperatura 10°C
Humitat 100%
Pressió 1015 hPa
Visibilitat 10 km o més
Núvols disperses a una alçada de 1200 ft

METAR: EFTU 150050Z AUTO 13003KT 9999 SCT012 10/10 Q1015

Hora: 04:05 (01:05 UTC)

Pronòstic

L'informe es va fer fa 1 hora i 34 minuts, a les 23:31 UTC
Pronòstic vàlid del 15 a les 00 UTC al 15 a les 24 UTC
Vent 2 kt del Est
Visibilitat 10 km o més
sense núvols per sota de 1500 mi sense presència de cumulonimbus.
Temporalment
l' 15 a les 00 UTC al 15 a les 03 UTC
Visibilitat: 0800 m
Cel ennuvolat a una alçada de 200 ft
boira
Evolucionant progressivament
l' 15 a les 05 UTC al 15 a les 07 UTC
Vent 10 kt del Sud

TAF: EFTU 142331Z 1500/1524 09002KT CAVOK TEMPO 1500/1503 0800 FG BKN002 BECMG 1505/1507 17010KT

Observacions i pronòstics meteorològics de més de 4000 aeroports (METAR i TAF).

Les estacions disponibles són els punts grocs i vermells al mapa.

Posi el ratolí al punt desitjat per veure el nom de l'estació.

Feu clic per veure les observacions i els pronòstics meteorològics.

Per canviar el mapa: feu clic els botons verds amb una creu de color negre per apropar; al botó verd amb un guió per allunyar la imatge; o en les fletxes verdes per a mapes adjacents.


METAR-TAF: